createdAt,value
2023-05-16T05:36:40.104Z,10.80
2023-05-16T05:39:07.436Z,10.70
2023-05-16T05:44:03.989Z,10.70
2023-05-16T05:46:33.820Z,10.70
2023-05-16T05:49:02.240Z,10.70
2023-05-16T05:51:29.555Z,10.90
2023-05-16T05:54:02.586Z,10.60
2023-05-16T05:56:32.654Z,10.40
2023-05-16T06:01:27.795Z,11.10
2023-05-16T06:03:55.157Z,10.60
2023-05-16T06:06:24.092Z,10.50
2023-05-16T06:08:52.366Z,10.40
2023-05-16T06:11:21.599Z,10.60
2023-05-16T06:13:49.328Z,10.20
2023-05-16T06:18:45.396Z,10.30
2023-05-16T06:23:40.447Z,10.40
2023-05-16T06:26:08.910Z,10.30
2023-05-16T06:28:37.369Z,10.30
2023-05-16T06:31:07.973Z,10.40
2023-05-16T06:33:37.902Z,10.30
2023-05-16T06:38:37.666Z,10.00
2023-05-16T06:41:06.577Z,10.30
2023-05-16T06:43:34.939Z,10.20
2023-05-16T06:53:29.050Z,10.50
2023-05-16T06:55:56.731Z,10.20
2023-05-16T06:58:24.004Z,10.70
2023-05-16T07:00:55.863Z,10.00
2023-05-16T07:03:23.563Z,10.50
2023-05-16T07:05:53.006Z,10.30
2023-05-16T07:13:16.326Z,10.20
2023-05-16T07:25:37.061Z,10.20
2023-05-16T07:28:04.981Z,10.40
2023-05-16T07:30:33.382Z,10.00
2023-05-16T07:37:57.926Z,10.30
2023-05-16T07:48:00.829Z,10.40
2023-05-16T08:15:12.590Z,10.90
2023-05-16T08:17:40.223Z,11.10
2023-05-16T08:20:11.876Z,10.70
2023-05-16T08:22:39.941Z,10.80
2023-05-16T08:25:09.212Z,11.00
2023-05-16T08:27:40.197Z,11.00
2023-05-16T08:30:10.322Z,10.90
2023-05-16T08:32:38.073Z,10.90
2023-05-16T08:40:06.027Z,11.80
2023-05-16T08:42:34.799Z,11.90
2023-05-16T08:47:43.201Z,11.80
2023-05-16T08:50:12.082Z,11.70
2023-05-16T08:55:11.681Z,11.60
2023-05-16T08:57:57.034Z,11.50
2023-05-16T09:02:53.396Z,11.50
2023-05-16T09:05:26.846Z,11.40
2023-05-16T09:20:19.808Z,11.70
2023-05-16T09:22:58.666Z,11.70
2023-05-16T09:25:32.030Z,11.70
2023-05-16T09:28:02.730Z,11.80
2023-05-16T09:30:33.758Z,11.70
2023-05-16T09:43:06.232Z,11.70
2023-05-16T09:45:37.057Z,11.70
2023-05-16T09:48:10.279Z,11.60
2023-05-16T09:50:43.640Z,11.60
2023-05-16T09:53:14.551Z,12.30
2023-05-16T09:55:45.302Z,11.10
2023-05-16T09:58:19.121Z,11.50
2023-05-16T10:00:48.306Z,11.30
2023-05-16T10:05:44.963Z,11.30
2023-05-16T10:08:14.425Z,11.20
2023-05-16T10:10:42.799Z,10.80
2023-05-16T10:13:11.865Z,11.60
2023-05-16T10:18:13.149Z,11.30
2023-05-16T10:20:43.597Z,11.50
2023-05-16T10:23:17.313Z,11.60
2023-05-16T10:25:46.045Z,11.80
2023-05-16T10:28:15.184Z,11.40
2023-05-16T10:30:45.560Z,11.50
2023-05-16T10:33:17.886Z,11.70
2023-05-16T10:35:46.664Z,11.50
2023-05-16T10:38:18.736Z,11.30
2023-05-16T10:40:48.911Z,11.60
2023-05-16T10:43:27.469Z,11.70
2023-05-16T10:46:12.372Z,11.90
2023-05-16T10:48:41.446Z,11.80
2023-05-16T10:51:23.887Z,11.90
2023-05-16T10:53:55.412Z,11.90
2023-05-16T10:56:24.588Z,11.80
2023-05-16T10:58:55.690Z,11.80
2023-05-16T11:01:31.677Z,11.50
2023-05-16T11:06:43.480Z,11.30
2023-05-16T11:11:57.664Z,11.30
2023-05-16T11:14:38.988Z,11.40
2023-05-16T11:17:13.527Z,11.60
2023-05-16T11:20:04.004Z,11.70
2023-05-16T11:22:33.630Z,11.70
2023-05-16T11:25:09.323Z,11.60
2023-05-16T11:27:45.785Z,11.70
2023-05-16T11:30:21.767Z,11.60
2023-05-16T11:35:18.633Z,11.60
2023-05-16T11:42:49.212Z,11.30
2023-05-16T11:45:18.458Z,11.10
2023-05-16T11:47:48.078Z,10.60
2023-05-16T11:50:20.798Z,11.00
2023-05-16T11:52:53.749Z,10.90
2023-05-16T11:55:41.036Z,10.90
2023-05-16T11:58:10.258Z,10.80
2023-05-16T12:03:06.159Z,11.00
2023-05-16T12:05:35.408Z,11.40
2023-05-16T12:10:39.293Z,10.10
2023-05-16T12:15:34.894Z,10.10
2023-05-16T12:18:02.614Z,10.00
2023-05-16T12:20:31.232Z,10.20
2023-05-16T12:22:58.870Z,10.50
2023-05-16T12:25:36.044Z,10.10
2023-05-16T12:28:05.069Z,10.40
2023-05-16T12:30:33.192Z,10.30
2023-05-16T12:33:08.510Z,10.40
2023-05-16T12:35:39.021Z,10.30
2023-05-16T12:38:10.969Z,10.90
2023-05-16T12:40:41.983Z,10.60
2023-05-16T12:43:24.415Z,10.50
2023-05-16T12:45:57.380Z,10.80
2023-05-16T12:48:29.903Z,10.70
2023-05-16T12:58:20.216Z,10.80
2023-05-16T13:03:16.244Z,11.30
2023-05-16T13:13:07.762Z,11.20
2023-05-16T13:45:09.976Z,12.30
2023-05-16T13:50:09.212Z,12.70
2023-05-16T13:52:38.222Z,12.40
2023-05-16T13:55:06.736Z,12.30
2023-05-16T13:57:34.194Z,12.20
2023-05-16T14:02:32.000Z,12.70
2023-05-16T14:04:59.163Z,11.80
2023-05-16T14:07:26.364Z,12.20
2023-05-16T14:09:53.633Z,12.20
2023-05-16T14:12:21.413Z,12.10
2023-05-16T14:22:11.506Z,12.10
2023-05-16T14:24:38.836Z,12.00
2023-05-16T14:27:05.967Z,11.70
2023-05-16T14:29:33.144Z,11.80
2023-05-16T14:32:00.320Z,12.10
2023-05-16T14:36:56.278Z,11.80
2023-05-16T14:39:23.616Z,11.90
2023-05-16T14:41:51.008Z,12.60
2023-05-16T14:46:47.698Z,11.80
2023-05-16T14:49:14.967Z,12.60
2023-05-16T14:54:12.051Z,11.60
2023-05-16T15:01:34.230Z,12.10
2023-05-16T15:04:01.565Z,12.30
2023-05-16T15:06:28.970Z,12.10
2023-05-16T15:08:56.442Z,12.40
2023-05-16T15:11:23.742Z,12.30
2023-05-16T15:13:51.013Z,11.90
2023-05-16T15:16:18.297Z,12.00
2023-05-16T15:18:45.933Z,11.90
2023-05-16T15:23:41.559Z,11.60
2023-05-16T15:26:08.981Z,12.10
2023-05-16T15:28:36.333Z,11.70
2023-05-16T15:31:07.164Z,12.10
2023-05-16T15:38:29.584Z,11.90
2023-05-16T15:43:44.533Z,12.00
2023-05-16T15:46:11.991Z,11.90
2023-05-16T15:53:37.795Z,12.20
2023-05-16T15:58:33.210Z,12.10
